Time;durP1;ratioP1;P1;durP2;ratioP2;P2;SDS_P1;SDS_P2;PMS_P1;PMS_P2;Temp;Humidity;BMP_temperature;BMP_pressure;BME280_temperature;BME280_humidity;BME280_pressure;Samples;Min_cycle;Max_cycle;Signal;HPM_P1;HPM_P2
2022/10/18 00:00:14;;;;;;;7.20;3.60;;;14.80;99.90;;;;;;5053402;28;20278;-80
2022/10/18 00:02:41;;;;;;;7.93;3.97;;;14.70;99.90;;;;;;5053046;28;20194;-78
2022/10/18 00:05:09;;;;;;;8.82;3.30;;;14.70;99.90;;;;;;5052289;28;20212;-78
2022/10/18 00:07:36;;;;;;;7.53;4.00;;;14.70;99.90;;;;;;5052986;28;20630;-79
2022/10/18 00:10:05;;;;;;;8.88;3.60;;;14.60;99.90;;;;;;5052902;28;20202;-79
2022/10/18 00:12:33;;;;;;;8.35;3.65;;;14.60;99.90;;;;;;5052106;28;20314;-79
2022/10/18 00:15:00;;;;;;;4.97;3.25;;;14.60;99.90;;;;;;5052592;28;20262;-79
2022/10/18 00:17:27;;;;;;;7.40;3.13;;;14.50;99.90;;;;;;5052147;28;20202;-78
2022/10/18 00:19:53;;;;;;;9.95;3.83;;;14.50;99.90;;;;;;5052100;28;20690;-79
2022/10/18 00:22:20;;;;;;;16.75;4.70;;;14.50;99.90;;;;;;5052640;28;20221;-79
2022/10/18 00:24:47;;;;;;;10.82;3.90;;;14.40;99.90;;;;;;5052124;28;20259;-79
2022/10/18 00:27:15;;;;;;;12.75;4.30;;;14.40;99.90;;;;;;5052317;28;20222;-80
2022/10/18 00:29:42;;;;;;;10.05;3.42;;;14.40;99.90;;;;;;5052620;28;20281;-79
2022/10/18 00:32:10;;;;;;;10.23;3.78;;;14.40;99.90;;;;;;5051826;28;20190;-79
2022/10/18 00:34:37;;;;;;;13.90;4.15;;;14.30;99.90;;;;;;5052033;28;20259;-78
2022/10/18 00:37:04;;;;;;;10.00;3.75;;;14.30;99.90;;;;;;5052598;28;20248;-79
2022/10/18 00:39:31;;;;;;;11.02;3.63;;;14.30;99.90;;;;;;5033722;28;20590;-80
2022/10/18 00:41:58;;;;;;;12.80;4.05;;;14.30;99.90;;;;;;5052260;28;20206;-79
2022/10/18 00:45:01;;;;;;;16.98;4.18;;;14.20;99.90;;;;;;5052138;28;20210;-79
2022/10/18 00:47:29;;;;;;;14.80;4.15;;;14.30;99.90;;;;;;5051656;28;20237;-79
2022/10/18 00:50:01;;;;;;;13.90;4.15;;;14.20;99.90;;;;;;5051925;28;20204;-79
2022/10/18 00:52:32;;;;;;;13.77;4.03;;;14.20;99.90;;;;;;5052135;28;20229;-79
2022/10/18 00:55:00;;;;;;;9.73;2.93;;;14.20;99.90;;;;;;5052346;28;20260;-79
2022/10/18 00:57:27;;;;;;;14.95;3.85;;;14.20;99.90;;;;;;5052073;28;20202;-79
2022/10/18 00:59:54;;;;;;;20.45;4.85;;;14.20;99.90;;;;;;5051445;28;20210;-79
2022/10/18 01:02:23;;;;;;;11.73;3.72;;;14.20;99.90;;;;;;5052290;28;20198;-79
2022/10/18 01:04:50;;;;;;;15.32;4.15;;;14.20;99.90;;;;;;5051196;28;20206;-78
2022/10/18 01:07:30;;;;;;;17.55;4.30;;;14.20;99.90;;;;;;5051496;28;20521;-79
2022/10/18 01:10:03;;;;;;;18.52;4.97;;;14.20;99.90;;;;;;5051922;28;20196;-78
2022/10/18 01:12:44;;;;;;;29.37;5.17;;;14.30;99.90;;;;;;5070170;28;20578;-78
2022/10/18 01:15:20;;;;;;;15.20;3.88;;;14.40;99.90;;;;;;5064076;28;20236;-80
2022/10/18 01:18:08;;;;;;;26.83;3.90;;;14.50;99.90;;;;;;5051832;28;20197;-79
2022/10/18 01:20:59;;;;;;;16.25;3.30;;;14.60;99.90;;;;;;5051751;28;20505;-79
2022/10/18 01:23:40;;;;;;;13.73;3.97;;;14.60;99.90;;;;;;5051002;28;20247;-79
2022/10/18 01:26:19;;;;;;;15.32;3.45;;;14.70;99.90;;;;;;5052141;28;20277;-79
2022/10/18 01:28:57;;;;;;;15.70;3.15;;;14.70;99.90;;;;;;5051122;28;20202;-80
2022/10/18 01:31:31;;;;;;;19.75;4.60;;;14.70;99.90;;;;;;5051995;28;20590;-79
2022/10/18 01:34:01;;;;;;;24.08;4.75;;;14.70;99.90;;;;;;5051179;28;20197;-79
2022/10/18 01:36:32;;;;;;;16.00;4.35;;;14.70;99.90;;;;;;5050737;28;20210;-79
2022/10/18 01:39:02;;;;;;;21.00;4.75;;;14.80;99.90;;;;;;5051815;28;20217;-79
2022/10/18 01:41:29;;;;;;;19.88;4.90;;;14.80;99.90;;;;;;5051768;28;20210;-78
2022/10/18 01:44:00;;;;;;;19.38;5.47;;;14.70;99.90;;;;;;5050789;28;20205;-79
2022/10/18 01:46:29;;;;;;;19.63;5.07;;;14.80;99.90;;;;;;5051953;28;20563;-80
2022/10/18 01:48:56;;;;;;;22.15;5.57;;;14.80;99.90;;;;;;5051034;28;20226;-79
2022/10/18 01:51:25;;;;;;;24.63;5.65;;;14.80;99.90;;;;;;5051604;28;20229;-79
2022/10/18 01:53:53;;;;;;;15.40;4.43;;;14.90;99.90;;;;;;5051971;28;20547;-81
2022/10/18 01:56:29;;;;;;;24.75;5.50;;;14.90;99.90;;;;;;5051252;28;20214;-79
2022/10/18 01:59:05;;;;;;;27.90;5.70;;;14.90;99.90;;;;;;5051694;28;20209;-81
2022/10/18 02:01:45;;;;;;;14.88;4.30;;;14.90;99.90;;;;;;5051777;28;20280;-79
2022/10/18 02:04:23;;;;;;;20.83;5.22;;;14.90;99.90;;;;;;5051265;28;20194;-80
2022/10/18 02:06:57;;;;;;;21.23;4.88;;;14.80;99.90;;;;;;5051639;28;20225;-80
2022/10/18 02:09:33;;;;;;;20.52;4.38;;;14.80;99.90;;;;;;5051582;28;20217;-79
2022/10/18 02:12:02;;;;;;;15.07;4.20;;;14.90;99.90;;;;;;5051052;28;20669;-79
2022/10/18 02:14:29;;;;;;;22.88;5.78;;;14.80;99.90;;;;;;5051235;28;20205;-80
2022/10/18 02:17:03;;;;;;;17.17;4.72;;;14.80;99.90;;;;;;5035559;28;20701;-79
2022/10/18 02:19:34;;;;;;;21.13;4.97;;;14.80;99.90;;;;;;5054731;28;20488;-79
2022/10/18 02:22:01;;;;;;;23.13;4.65;;;14.70;99.90;;;;;;5055151;28;20298;-79
2022/10/18 02:24:34;;;;;;;18.77;4.60;;;14.70;99.90;;;;;;5054530;28;20588;-79
2022/10/18 02:27:02;;;;;;;21.88;4.75;;;14.80;99.90;;;;;;5055158;28;20206;-80
2022/10/18 02:29:29;;;;;;;18.17;4.60;;;14.70;99.90;;;;;;5055156;28;20240;-80
2022/10/18 02:32:04;;;;;;;17.60;4.40;;;14.70;99.90;;;;;;5054284;28;20621;-80
2022/10/18 02:34:35;;;;;;;19.73;4.82;;;14.70;99.90;;;;;;5055203;28;20499;-80
2022/10/18 02:37:03;;;;;;;20.75;5.28;;;14.70;99.90;;;;;;5055270;28;20211;-81
2022/10/18 02:39:33;;;;;;;14.88;3.60;;;14.70;99.90;;;;;;5054235;28;20204;-80
2022/10/18 02:42:00;;;;;;;14.93;3.72;;;14.60;99.90;;;;;;5054824;28;20198;-78
2022/10/18 02:44:27;;;;;;;16.33;4.13;;;14.60;99.90;;;;;;5054563;28;20197;-79
2022/10/18 02:46:54;;;;;;;16.80;4.30;;;14.60;99.90;;;;;;5054184;28;20213;-80
2022/10/18 02:49:23;;;;;;;26.25;5.10;;;14.50;99.90;;;;;;5054441;28;20221;-81
2022/10/18 02:51:50;;;;;;;20.88;5.03;;;14.50;99.90;;;;;;5053857;28;20236;-80
2022/10/18 02:54:17;;;;;;;22.80;5.15;;;14.50;99.90;;;;;;5054068;28;20744;-80
2022/10/18 02:56:44;;;;;;;19.70;5.03;;;14.50;99.90;;;;;;5054660;28;20217;-80
2022/10/18 02:59:11;;;;;;;15.35;4.07;;;14.50;99.90;;;;;;5053418;28;20664;-80
2022/10/18 03:01:38;;;;;;;20.85;4.60;;;14.50;99.90;;;;;;5053932;28;20240;-79
2022/10/18 03:04:05;;;;;;;13.52;3.92;;;14.50;99.90;;;;;;5054411;28;20751;-79
2022/10/18 03:06:34;;;;;;;15.10;3.78;;;14.40;99.90;;;;;;5053457;28;20212;-78
2022/10/18 03:09:02;;;;;;;20.55;4.90;;;14.40;99.90;;;;;;5054082;28;20218;-80
2022/10/18 03:11:29;;;;;;;10.50;3.95;;;14.40;99.90;;;;;;5053517;28;20267;-79
2022/10/18 03:13:56;;;;;;;14.07;3.70;;;14.30;99.90;;;;;;5053527;28;20229;-79
2022/10/18 03:16:23;;;;;;;11.85;3.70;;;14.30;99.90;;;;;;5097046;22;20240;-79
2022/10/18 03:18:49;;;;;;;13.38;3.63;;;14.20;99.90;;;;;;5094273;28;20189;-79
2022/10/18 03:21:16;;;;;;;13.10;3.80;;;14.20;99.90;;;;;;5077908;28;20211;-79
2022/10/18 03:23:45;;;;;;;17.65;3.92;;;14.10;99.90;;;;;;5073720;28;20494;-79
2022/10/18 03:26:12;;;;;;;14.48;3.90;;;14.10;99.90;;;;;;5073803;28;20197;-79
2022/10/18 03:28:38;;;;;;;12.40;3.42;;;14.10;99.90;;;;;;5072539;28;20520;-80
2022/10/18 03:31:05;;;;;;;11.80;3.25;;;14.10;99.90;;;;;;5074215;28;20205;-79
2022/10/18 03:33:33;;;;;;;10.75;2.78;;;14.10;99.90;;;;;;5073565;28;20506;-79
2022/10/18 03:36:00;;;;;;;8.73;2.40;;;14.10;99.90;;;;;;5073142;28;20217;-78
2022/10/18 03:38:27;;;;;;;8.88;2.40;;;14.00;99.90;;;;;;5073568;28;20204;-79
2022/10/18 03:40:55;;;;;;;9.65;1.90;;;14.00;99.90;;;;;;5073324;28;20687;-79
2022/10/18 03:43:23;;;;;;;7.78;2.15;;;13.90;99.90;;;;;;5072812;28;20213;-79
2022/10/18 03:45:50;;;;;;;7.03;2.33;;;13.90;99.90;;;;;;5074061;28;20478;-81
2022/10/18 03:48:17;;;;;;;4.68;1.88;;;13.80;99.90;;;;;;5073422;28;20502;-80
2022/10/18 03:50:44;;;;;;;5.90;2.15;;;13.80;99.90;;;;;;5075923;28;20283;-80
2022/10/18 03:53:11;;;;;;;7.10;2.03;;;13.70;99.90;;;;;;5093360;28;20204;-80
2022/10/18 03:55:38;;;;;;;5.88;1.70;;;13.70;99.90;;;;;;5081881;28;20224;-81
2022/10/18 03:58:07;;;;;;;5.60;1.63;;;13.60;99.90;;;;;;5073234;28;20202;-80
2022/10/18 04:00:34;;;;;;;5.65;1.50;;;13.60;99.90;;;;;;5073099;28;20288;-81
2022/10/18 04:03:01;;;;;;;4.97;1.50;;;13.60;99.90;;;;;;5072770;28;20597;-79
2022/10/18 04:05:29;;;;;;;8.77;1.90;;;13.50;99.90;;;;;;5073224;28;20206;-81
2022/10/18 04:07:57;;;;;;;8.02;1.90;;;13.50;99.90;;;;;;5073353;28;20605;-81
2022/10/18 04:10:24;;;;;;;6.15;1.92;;;13.50;99.90;;;;;;5072531;28;20236;-80
2022/10/18 04:12:51;;;;;;;5.75;1.70;;;13.40;99.90;;;;;;5073188;28;20304;-80
2022/10/18 04:15:20;;;;;;;7.95;2.30;;;13.30;99.90;;;;;;5072759;28;20223;-80
2022/10/18 04:17:47;;;;;;;3.57;1.63;;;13.30;99.90;;;;;;5072956;28;20216;-79
2022/10/18 04:20:14;;;;;;;3.90;1.50;;;13.20;99.90;;;;;;5072700;28;20193;-79
2022/10/18 04:22:40;;;;;;;4.43;1.30;;;13.10;99.90;;;;;;5072912;28;20194;-80
2022/10/18 04:25:08;;;;;;;5.63;1.60;;;13.10;99.90;;;;;;5072617;28;20201;-79
2022/10/18 04:27:35;;;;;;;6.30;1.60;;;13.00;99.90;;;;;;5072539;28;20209;-78
2022/10/18 04:30:02;;;;;;;5.22;1.63;;;13.00;99.90;;;;;;5072539;28;20312;-80
2022/10/18 04:32:30;;;;;;;8.13;2.13;;;12.90;99.90;;;;;;5072086;28;20202;-78
2022/10/18 04:34:57;;;;;;;10.07;2.35;;;12.80;99.90;;;;;;5072139;28;20515;-84
2022/10/18 04:37:24;;;;;;;5.03;1.60;;;12.70;99.90;;;;;;5072465;28;20280;-79
2022/10/18 04:39:50;;;;;;;3.53;2.03;;;12.60;99.90;;;;;;5071369;28;20281;-78
2022/10/18 04:42:17;;;;;;;5.20;1.97;;;12.60;99.90;;;;;;5072218;28;20211;-79
2022/10/18 04:44:44;;;;;;;4.60;1.93;;;12.50;99.90;;;;;;5071346;28;20197;-80
2022/10/18 04:47:11;;;;;;;2.97;1.60;;;12.50;99.90;;;;;;5072161;28;20220;-78
2022/10/18 04:49:39;;;;;;;5.13;1.63;;;12.50;99.90;;;;;;5072425;28;20217;-79
2022/10/18 04:52:06;;;;;;;5.70;2.23;;;12.40;99.90;;;;;;5071578;28;20224;-79
2022/10/18 04:54:33;;;;;;;7.00;2.33;;;12.30;99.90;;;;;;5072615;28;20201;-79
2022/10/18 04:57:00;;;;;;;11.50;2.23;;;12.30;99.90;;;;;;5071959;28;20232;-78
2022/10/18 04:59:27;;;;;;;4.93;1.80;;;12.20;99.90;;;;;;5071525;28;20205;-79
2022/10/18 05:01:54;;;;;;;6.23;2.00;;;12.20;99.90;;;;;;5072047;28;20593;-79
2022/10/18 05:04:21;;;;;;;6.13;2.30;;;12.20;99.90;;;;;;5071669;28;20209;-80
2022/10/18 05:06:49;;;;;;;5.00;2.13;;;12.10;99.90;;;;;;5071560;28;20597;-79
2022/10/18 05:09:16;;;;;;;5.67;1.63;;;12.00;99.90;;;;;;5072011;28;20229;-79
2022/10/18 05:11:43;;;;;;;4.27;1.90;;;12.00;99.90;;;;;;5071908;28;20212;-79
2022/10/18 05:14:10;;;;;;;4.03;1.53;;;11.90;99.90;;;;;;5071327;28;20193;-79
2022/10/18 05:16:37;;;;;;;4.93;1.60;;;11.90;99.90;;;;;;5071840;28;20237;-79
2022/10/18 05:19:05;;;;;;;3.47;1.60;;;11.80;99.90;;;;;;5072428;28;20219;-80
2022/10/18 05:21:32;;;;;;;4.23;2.20;;;11.80;99.90;;;;;;5071653;28;20582;-79
2022/10/18 05:24:00;;;;;;;4.30;1.97;;;11.80;99.90;;;;;;5071225;28;20533;-79
2022/10/18 05:26:27;;;;;;;6.63;2.00;;;11.70;99.90;;;;;;5071979;28;20316;-79
2022/10/18 05:28:54;;;;;;;5.87;2.00;;;11.70;99.90;;;;;;5071603;28;20212;-79
2022/10/18 05:31:21;;;;;;;3.20;1.70;;;11.60;99.90;;;;;;5072240;28;20280;-80
2022/10/18 05:33:48;;;;;;;4.40;2.00;;;11.60;99.90;;;;;;5072039;28;20208;-79
2022/10/18 05:36:15;;;;;;;6.27;2.00;;;11.60;99.90;;;;;;5071485;28;20205;-80
2022/10/18 05:38:44;;;;;;;5.20;2.10;;;11.50;99.90;;;;;;5071988;28;20704;-79
2022/10/18 05:41:12;;;;;;;6.40;2.07;;;11.50;99.90;;;;;;5071348;28;20232;-79
2022/10/18 05:43:39;;;;;;;7.20;2.27;;;11.50;99.90;;;;;;5071624;28;20201;-79
2022/10/18 05:46:07;;;;;;;3.93;1.90;;;11.40;99.90;;;;;;5071513;28;20593;-80
2022/10/18 05:48:34;;;;;;;3.77;1.60;;;11.40;99.90;;;;;;5070989;28;20250;-80
2022/10/18 05:51:01;;;;;;;3.03;1.80;;;11.40;99.90;;;;;;5074304;28;20193;-80
2022/10/18 05:53:28;;;;;;;6.07;2.20;;;11.30;99.90;;;;;;5076048;28;20204;-79
2022/10/18 05:55:55;;;;;;;4.47;1.97;;;11.30;99.90;;;;;;5074991;28;20717;-79
2022/10/18 05:58:23;;;;;;;4.93;2.70;;;11.30;99.90;;;;;;5075799;28;20212;-80
2022/10/18 06:00:50;;;;;;;8.77;2.70;;;11.30;99.90;;;;;;5086289;28;20479;-79
2022/10/18 06:03:18;;;;;;;7.13;3.60;;;11.20;99.90;;;;;;5095349;28;20205;-80
2022/10/18 06:05:45;;;;;;;7.80;4.10;;;11.20;99.90;;;;;;5089469;28;20201;-79
2022/10/18 06:08:12;;;;;;;11.43;5.77;;;11.20;99.90;;;;;;5075264;28;20221;-80
2022/10/18 06:10:39;;;;;;;9.70;4.50;;;11.20;99.90;;;;;;5074520;28;20633;-80
2022/10/18 06:13:06;;;;;;;8.07;4.47;;;11.10;99.90;;;;;;5075427;28;20208;-80
2022/10/18 06:15:34;;;;;;;7.40;4.00;;;11.10;99.90;;;;;;5075459;28;20243;-79
2022/10/18 06:18:01;;;;;;;5.07;3.00;;;11.10;99.90;;;;;;5074926;28;20284;-81
2022/10/18 06:20:28;;;;;;;4.80;2.43;;;11.00;99.90;;;;;;5075113;28;20193;-79
2022/10/18 06:22:55;;;;;;;6.50;2.80;;;11.00;99.90;;;;;;5075682;28;20197;-81
2022/10/18 06:25:22;;;;;;;3.97;2.40;;;11.00;99.90;;;;;;5073876;28;20198;-80
2022/10/18 06:27:48;;;;;;;5.43;2.70;;;10.90;99.90;;;;;;5075461;28;20303;-81
2022/10/18 06:30:15;;;;;;;3.60;2.40;;;11.00;99.90;;;;;;5074068;28;20227;-81
2022/10/18 06:32:44;;;;;;;5.00;2.20;;;10.90;99.90;;;;;;5074898;28;20204;-80
2022/10/18 06:35:10;;;;;;;2.70;1.97;;;10.90;99.90;;;;;;5075314;28;20211;-80
2022/10/18 06:37:37;;;;;;;3.13;2.00;;;10.90;99.90;;;;;;5074325;28;20284;-78
2022/10/18 06:40:05;;;;;;;3.40;2.20;;;10.80;99.90;;;;;;5074712;28;20205;-79
2022/10/18 06:42:32;;;;;;;4.73;2.20;;;10.90;99.90;;;;;;5073652;28;20284;-78
2022/10/18 06:45:00;;;;;;;4.97;2.33;;;10.80;99.90;;;;;;5074460;28;20197;-80
2022/10/18 06:47:27;;;;;;;5.90;2.37;;;10.80;99.90;;;;;;5073823;28;20403;-80
2022/10/18 06:49:55;;;;;;;4.10;2.20;;;10.80;99.90;;;;;;5074922;28;20554;-80
2022/10/18 06:52:24;;;;;;;4.57;2.27;;;10.80;99.90;;;;;;5073885;28;20284;-79
2022/10/18 06:54:51;;;;;;;3.63;1.90;;;10.80;99.90;;;;;;5074493;28;20249;-79
2022/10/18 06:57:18;;;;;;;5.27;2.80;;;10.80;99.90;;;;;;5074306;28;20259;-80
2022/10/18 06:59:45;;;;;;;5.63;2.27;;;10.80;99.90;;;;;;5074485;28;20204;-80
2022/10/18 07:02:16;;;;;;;4.70;2.30;;;10.80;99.90;;;;;;5073594;28;20653;-79
2022/10/18 07:04:43;;;;;;;4.20;2.70;;;10.70;99.90;;;;;;5092520;28;20216;-79
2022/10/18 07:07:11;;;;;;;5.67;3.00;;;10.70;99.90;;;;;;5074331;28;20213;-79
2022/10/18 07:09:38;;;;;;;5.00;3.30;;;10.80;99.90;;;;;;5074474;28;20221;-81
2022/10/18 07:12:05;;;;;;;8.33;4.40;;;10.80;99.90;;;;;;5074600;28;20258;-79
2022/10/18 07:14:32;;;;;;;10.50;4.47;;;10.80;99.90;;;;;;5073847;28;20204;-81
2022/10/18 07:16:59;;;;;;;7.23;4.00;;;10.80;99.90;;;;;;5074814;28;20207;-84
2022/10/18 07:19:26;;;;;;;8.50;3.90;;;10.80;99.90;;;;;;5074213;28;20636;-83
2022/10/18 07:21:53;;;;;;;8.27;4.40;;;10.70;99.90;;;;;;5075261;28;20520;-81
2022/10/18 07:24:21;;;;;;;8.63;4.50;;;10.70;99.90;;;;;;5076003;28;20201;-83
2022/10/18 07:26:48;;;;;;;8.43;4.50;;;10.80;99.90;;;;;;5096790;28;20201;-84
2022/10/18 07:29:15;;;;;;;9.47;4.77;;;10.80;99.90;;;;;;5084009;28;20254;-85
2022/10/18 07:31:42;;;;;;;8.13;4.53;;;10.80;99.90;;;;;;5076107;28;20498;-83
2022/10/18 07:34:12;;;;;;;9.20;4.63;;;10.80;99.90;;;;;;5075555;28;20193;-84
2022/10/18 07:36:39;;;;;;;7.97;5.07;;;10.80;99.90;;;;;;5075829;28;20196;-85
2022/10/18 07:39:06;;;;;;;11.87;5.30;;;10.80;99.90;;;;;;5076113;28;20209;-84
2022/10/18 07:41:34;;;;;;;8.67;4.87;;;10.90;99.90;;;;;;5075457;28;20644;-85
2022/10/18 07:44:02;;;;;;;8.40;5.07;;;10.90;99.90;;;;;;5076135;28;20280;-82
2022/10/18 07:46:29;;;;;;;11.20;4.77;;;10.90;99.90;;;;;;5075436;28;20739;-82
2022/10/18 07:48:57;;;;;;;8.43;4.73;;;11.00;99.90;;;;;;5093101;28;20204;-85
2022/10/18 07:51:24;;;;;;;10.33;4.50;;;10.90;99.90;;;;;;5094118;28;20232;-86
2022/10/18 07:53:51;;;;;;;7.63;4.43;;;11.00;99.90;;;;;;5074319;28;20209;-83
2022/10/18 07:56:20;;;;;;;9.37;4.20;;;11.10;99.90;;;;;;5073373;28;20246;-86
2022/10/18 07:58:51;;;;;;;8.53;4.40;;;11.20;99.90;;;;;;5074891;28;20201;-86
2022/10/18 08:01:18;;;;;;;10.53;4.37;;;11.20;99.90;;;;;;5075252;28;20194;-83
2022/10/18 08:03:45;;;;;;;12.57;4.30;;;11.30;99.90;;;;;;5081711;28;20272;-81
2022/10/18 08:06:15;;;;;;;12.53;3.73;;;11.30;99.90;;;;;;5094029;28;20263;-81
2022/10/18 08:08:42;;;;;;;8.73;3.27;;;11.40;99.90;;;;;;5093023;28;20196;-83
2022/10/18 08:11:11;;;;;;;13.50;3.70;;;11.60;99.90;;;;;;5081339;28;20220;-83
2022/10/18 08:13:38;;;;;;;8.67;3.30;;;11.70;99.90;;;;;;5073079;28;20545;-81
2022/10/18 08:16:08;;;;;;;10.33;2.47;;;11.90;99.90;;;;;;5073348;28;20236;-86
2022/10/18 08:18:36;;;;;;;13.17;3.07;;;12.00;99.90;;;;;;5074339;28;20604;-85
2022/10/18 08:21:03;;;;;;;8.80;2.00;;;12.20;99.90;;;;;;5074346;28;20436;-86
2022/10/18 08:23:30;;;;;;;7.87;1.77;;;12.30;99.90;;;;;;5074272;28;20504;-81
2022/10/18 08:26:00;;;;;;;10.17;2.67;;;12.40;99.90;;;;;;5075144;28;20508;-85
2022/10/18 08:28:27;;;;;;;7.27;1.93;;;12.50;99.90;;;;;;5075034;28;20207;-86
2022/10/18 08:30:54;;;;;;;14.00;2.20;;;12.60;99.90;;;;;;5074611;28;20229;-83
2022/10/18 08:33:23;;;;;;;11.50;2.00;;;12.70;99.90;;;;;;5081682;28;20228;-84
2022/10/18 08:35:56;;;;;;;9.00;1.87;;;12.80;99.90;;;;;;5094752;28;20199;-82
2022/10/18 08:38:23;;;;;;;9.87;2.00;;;12.90;99.90;;;;;;5094160;28;20199;-85
2022/10/18 08:40:50;;;;;;;12.43;2.23;;;12.90;99.90;;;;;;5094939;28;20193;-84
2022/10/18 08:43:26;;;;;;;13.67;2.17;;;13.00;99.90;;;;;;5093938;28;20200;-82
2022/10/18 08:45:55;;;;;;;8.87;1.60;;;13.10;99.90;;;;;;5088209;28;20203;-84
2022/10/18 08:48:30;;;;;;;10.87;2.07;;;13.20;99.90;;;;;;5074428;28;20216;-85
2022/10/18 08:50:58;;;;;;;12.90;1.70;;;13.30;99.90;;;;;;5073968;28;20219;-84
2022/10/18 08:53:31;;;;;;;7.70;1.95;;;13.30;99.90;;;;;;5074225;28;20552;-83
2022/10/18 08:56:04;;;;;;;11.37;2.10;;;13.40;99.90;;;;;;5074625;28;20229;-82
2022/10/18 08:58:33;;;;;;;8.10;1.70;;;13.40;99.90;;;;;;5073942;28;20202;-84
2022/10/18 09:01:12;;;;;;;8.17;2.13;;;13.50;99.90;;;;;;5074550;28;20193;-84
2022/10/18 09:03:57;;;;;;;9.30;1.43;;;13.50;99.90;;;;;;5074263;28;20207;-85
2022/10/18 09:06:32;;;;;;;7.17;1.90;;;13.60;99.90;;;;;;5074407;28;20212;-83
2022/10/18 09:09:16;;;;;;;11.13;1.90;;;13.70;99.90;;;;;;5074701;28;20283;-86
2022/10/18 09:11:54;;;;;;;7.10;1.60;;;13.80;99.90;;;;;;5074425;28;20209;-81
2022/10/18 09:14:45;;;;;;;9.07;1.73;;;13.80;99.90;;;;;;5073990;28;20189;-85
2022/10/18 09:17:19;;;;;;;11.93;2.20;;;13.90;99.90;;;;;;5079565;28;20299;-84
2022/10/18 09:19:59;;;;;;;14.30;2.40;;;14.00;99.90;;;;;;5094557;28;20184;-87
2022/10/18 09:22:37;;;;;;;6.95;1.73;;;14.10;99.90;;;;;;5093917;28;20189;-83
2022/10/18 09:25:15;;;;;;;11.97;2.13;;;14.20;99.90;;;;;;5094186;28;20189;-85
2022/10/18 09:27:51;;;;;;;9.50;2.03;;;14.30;99.90;;;;;;5092168;28;20189;-83
2022/10/18 09:30:29;;;;;;;7.57;1.83;;;14.30;99.90;;;;;;5074476;28;20222;-88
2022/10/18 09:33:06;;;;;;;8.73;1.90;;;14.40;99.90;;;;;;5073884;28;20644;-80
2022/10/18 09:35:42;;;;;;;7.72;2.08;;;14.50;99.90;;;;;;5073005;28;20239;-81
2022/10/18 09:38:12;;;;;;;10.60;2.03;;;14.60;99.90;;;;;;5073680;28;20239;-78
2022/10/18 09:40:48;;;;;;;11.02;2.03;;;14.60;99.90;;;;;;5072916;28;20205;-80
2022/10/18 09:43:20;;;;;;;8.77;2.07;;;14.70;99.90;;;;;;5073282;28;20193;-85
2022/10/18 09:45:49;;;;;;;3.70;1.35;;;14.80;99.90;;;;;;5073820;28;20199;-83
2022/10/18 09:48:20;;;;;;;8.73;2.00;;;14.80;99.90;;;;;;5072704;28;20201;-83
2022/10/18 09:50:54;;;;;;;4.80;1.33;;;14.90;99.90;;;;;;5073258;28;20232;-81
2022/10/18 09:53:34;;;;;;;8.93;2.08;;;15.10;99.90;;;;;;5073324;28;20631;-85
2022/10/18 09:56:04;;;;;;;8.55;2.08;;;15.10;99.90;;;;;;5072862;28;20315;-82
2022/10/18 09:58:41;;;;;;;8.93;1.80;;;15.20;99.90;;;;;;5073270;28;20597;-85
2022/10/18 10:01:10;;;;;;;5.90;1.60;;;15.30;99.90;;;;;;5072617;28;20200;-84
2022/10/18 10:03:37;;;;;;;9.30;1.65;;;15.40;99.90;;;;;;5073393;28;20288;-86
2022/10/18 10:06:17;;;;;;;8.18;1.50;;;15.50;99.90;;;;;;5072978;28;20205;-80
2022/10/18 10:08:48;;;;;;;8.38;1.30;;;15.60;99.90;;;;;;5071943;28;20531;-84
2022/10/18 10:11:45;;;;;;;7.85;1.90;;;15.60;99.90;;;;;;5073237;28;20236;-85
2022/10/18 10:14:16;;;;;;;7.97;1.55;;;15.70;99.90;;;;;;5048941;28;20332;-78
2022/10/18 10:16:52;;;;;;;8.27;2.05;;;15.80;99.90;;;;;;5073158;28;20197;-77
2022/10/18 10:19:23;;;;;;;12.40;1.85;;;15.90;99.90;;;;;;5072434;28;20628;-83
2022/10/18 10:21:56;;;;;;;6.70;1.80;;;16.10;99.90;;;;;;5073091;28;20194;-86
2022/10/18 10:24:33;;;;;;;7.40;1.55;;;16.20;99.90;;;;;;5072642;28;20200;-83
2022/10/18 10:27:03;;;;;;;7.90;1.85;;;16.30;99.90;;;;;;5073431;28;20208;-84
2022/10/18 10:29:55;;;;;;;7.90;1.67;;;16.30;99.90;;;;;;5072960;28;20560;-79
2022/10/18 10:32:24;;;;;;;7.88;1.67;;;16.50;99.90;;;;;;5073059;28;20260;-86
2022/10/18 10:34:52;;;;;;;5.97;1.08;;;16.60;99.90;;;;;;5073335;28;20297;-80
2022/10/18 10:37:31;;;;;;;6.85;1.35;;;16.60;99.90;;;;;;5088970;28;20392;-83
2022/10/18 10:40:22;;;;;;;6.60;1.50;;;16.80;99.90;;;;;;5097460;28;20185;-83
2022/10/18 10:43:00;;;;;;;6.13;1.45;;;16.70;99.90;;;;;;5082005;28;20204;-87
2022/10/18 10:45:29;;;;;;;7.82;1.38;;;16.80;99.90;;;;;;5096713;28;20184;-85
2022/10/18 10:48:04;;;;;;;8.40;1.60;;;16.90;99.90;;;;;;5100246;28;20207;-79
2022/10/18 10:50:31;;;;;;;7.65;1.77;;;17.00;99.90;;;;;;5093094;28;20566;-83
2022/10/18 10:52:59;;;;;;;6.85;1.65;;;17.00;99.90;;;;;;5075058;28;20196;-77
2022/10/18 10:55:33;;;;;;;8.63;1.58;;;17.10;99.90;;;;;;5074517;28;20539;-79
2022/10/18 10:58:00;;;;;;;4.22;1.52;;;17.20;99.90;;;;;;5074032;28;20205;-77
2022/10/18 11:00:37;;;;;;;7.97;1.58;;;17.30;99.90;;;;;;5074202;28;20511;-77
2022/10/18 11:03:12;;;;;;;6.95;1.60;;;17.30;99.90;;;;;;5074618;28;20242;-78
2022/10/18 11:05:44;;;;;;;5.10;1.73;;;17.40;99.90;;;;;;5074279;28;20208;-77
2022/10/18 11:08:15;;;;;;;5.10;1.70;;;17.50;99.90;;;;;;5079763;28;20204;-76
2022/10/18 11:11:00;;;;;;;8.02;1.40;;;17.50;99.90;;;;;;5094314;28;20299;-78
2022/10/18 11:13:46;;;;;;;8.73;1.75;;;17.60;99.90;;;;;;5094229;28;20189;-79
2022/10/18 11:16:17;;;;;;;9.52;1.80;;;17.70;99.90;;;;;;5077478;28;20243;-78
2022/10/18 11:18:48;;;;;;;5.53;1.77;;;17.70;99.90;;;;;;5073813;28;20736;-78
2022/10/18 11:21:18;;;;;;;7.80;1.90;;;17.80;99.90;;;;;;5074334;28;20190;-79
2022/10/18 11:23:46;;;;;;;8.20;1.85;;;17.80;99.90;;;;;;5074221;28;20293;-76
2022/10/18 11:26:37;;;;;;;6.40;1.63;;;17.80;99.90;;;;;;5074095;28;20220;-77
2022/10/18 11:29:29;;;;;;;6.88;1.52;;;17.90;99.90;;;;;;5074145;28;20243;-78
2022/10/18 11:32:04;;;;;;;6.82;1.65;;;17.90;99.90;;;;;;5073254;28;20229;-77
2022/10/18 11:34:56;;;;;;;4.00;1.17;;;17.90;99.90;;;;;;5075223;28;20276;-82
2022/10/18 11:37:33;;;;;;;7.15;1.58;;;18.00;99.90;;;;;;5076339;28;20197;-84
2022/10/18 11:40:14;;;;;;;7.97;1.60;;;18.00;99.90;;;;;;5074908;28;20621;-82
2022/10/18 11:42:52;;;;;;;6.03;1.60;;;18.10;99.90;;;;;;5075744;28;20191;-81
2022/10/18 11:45:29;;;;;;;5.35;1.40;;;18.00;99.90;;;;;;5076035;28;20199;-77
2022/10/18 11:48:04;;;;;;;6.00;1.40;;;18.00;99.90;;;;;;5079471;28;20284;-81
2022/10/18 11:50:40;;;;;;;9.07;2.00;;;18.00;96.20;;;;;;5095242;28;20188;-81
2022/10/18 11:53:19;;;;;;;5.38;1.48;;;18.00;99.90;;;;;;5095869;28;20184;-88
2022/10/18 11:56:00;;;;;;;6.78;1.75;;;18.00;99.90;;;;;;5094910;28;20212;-85
2022/10/18 11:58:42;;;;;;;4.50;1.40;;;18.00;99.90;;;;;;5094922;28;20291;-87
2022/10/18 12:01:19;;;;;;;7.95;1.52;;;18.00;99.90;;;;;;5086441;28;20474;-78
2022/10/18 12:03:56;;;;;;;4.97;1.30;;;18.00;99.90;;;;;;5073718;28;20503;-80
2022/10/18 12:06:26;;;;;;;3.25;1.02;;;18.10;99.90;;;;;;5073322;28;20201;-77
2022/10/18 12:08:58;;;;;;;5.55;1.40;;;18.10;99.90;;;;;;5072522;28;20577;-84
2022/10/18 12:11:30;;;;;;;4.28;1.60;;;18.10;99.90;;;;;;5073174;28;20221;-77
2022/10/18 12:14:00;;;;;;;8.00;1.85;;;18.10;99.90;;;;;;5074470;28;20213;-82
2022/10/18 12:16:30;;;;;;;6.68;1.80;;;18.20;99.90;;;;;;5074120;28;20633;-80
2022/10/18 12:19:01;;;;;;;6.82;2.10;;;18.10;99.90;;;;;;5075156;28;20207;-88
2022/10/18 12:21:32;;;;;;;5.75;1.83;;;18.10;99.90;;;;;;5074521;28;20201;-80
2022/10/18 12:24:03;;;;;;;6.97;1.90;;;18.10;99.90;;;;;;5073137;28;20284;-77
2022/10/18 12:26:33;;;;;;;5.75;1.90;;;18.10;99.90;;;;;;5073178;28;20236;-77
2022/10/18 12:29:12;;;;;;;6.13;2.15;;;18.10;99.90;;;;;;5073029;28;20197;-79
2022/10/18 12:31:45;;;;;;;7.85;1.80;;;18.00;99.90;;;;;;5072514;28;20229;-78
2022/10/18 12:34:28;;;;;;;4.65;1.48;;;18.00;99.90;;;;;;5073232;28;20197;-79
2022/10/18 12:37:08;;;;;;;7.55;1.58;;;17.90;99.90;;;;;;5072922;28;20197;-78
2022/10/18 12:39:41;;;;;;;5.95;1.58;;;17.80;99.90;;;;;;5073256;28;20200;-78
2022/10/18 12:42:18;;;;;;;8.05;1.52;;;17.80;99.90;;;;;;5072922;28;20196;-80
2022/10/18 12:44:47;;;;;;;5.78;1.45;;;17.70;99.90;;;;;;5072488;28;20204;-79
2022/10/18 12:47:22;;;;;;;5.80;1.45;;;17.60;99.90;;;;;;5072657;28;20197;-78
2022/10/18 12:49:57;;;;;;;7.32;1.58;;;17.70;99.90;;;;;;5073306;28;20196;-78
2022/10/18 12:52:26;;;;;;;5.00;1.40;;;17.60;99.90;;;;;;5072395;28;20247;-83
2022/10/18 12:55:28;;;;;;;6.75;2.00;;;17.60;97.80;;;;;;5073517;28;20225;-78
2022/10/18 12:58:04;;;;;;;7.30;1.60;;;17.60;99.90;;;;;;5072665;28;20185;-76
2022/10/18 13:01:01;;;;;;;5.00;1.30;;;17.50;99.90;;;;;;5072156;28;20515;-82